BFL weather

Meadows Field
Bakersfield, California, United States

Public forecast

Using degrees Fahrenheit for public forecast. Weather courtesy of forecast.io.

METAR (pilot weather report)

Retrieved 2019/09/23 11:54 UTC (9 minutes ago):

KBFL 231154Z 01005KT 10SM CLR 20/07 A2986 RMK AO2 SLP106 T02000072 10256 20172 55000

TAF (pilot weather forecast)

Retrieved 2019/09/23 12:22 UTC (0 seconds ago):

TAF KBFL 231120Z 2312/2412 VRB05KT P6SM SKC FM232100 32010KT P6SM SKC FM240300 36004KT P6SM SKC